sensor_id;sensor_type;location;lat;lon;timestamp;P1;durP1;ratioP1;P2;durP2;ratioP2
39994;SDS011;25686;51.908;10.418;2023-01-15T00:00:04;1.13;;;0.40;;
39994;SDS011;25686;51.908;10.418;2023-01-15T00:02:05;1.58;;;0.40;;
39994;SDS011;25686;51.908;10.418;2023-01-15T00:04:07;0.50;;;0.50;;
39994;SDS011;25686;51.908;10.418;2023-01-15T00:06:08;0.40;;;0.40;;
39994;SDS011;25686;51.908;10.418;2023-01-15T00:08:09;0.30;;;0.30;;
39994;SDS011;25686;51.908;10.418;2023-01-15T00:10:10;0.40;;;0.40;;
39994;SDS011;25686;51.908;10.418;2023-01-15T00:12:11;0.98;;;0.50;;
39994;SDS011;25686;51.908;10.418;2023-01-15T00:14:12;0.40;;;0.40;;
39994;SDS011;25686;51.908;10.418;2023-01-15T00:16:14;0.38;;;0.30;;
39994;SDS011;25686;51.908;10.418;2023-01-15T00:18:15;0.25;;;0.25;;
39994;SDS011;25686;51.908;10.418;2023-01-15T00:20:16;0.40;;;0.20;;
39994;SDS011;25686;51.908;10.418;2023-01-15T00:22:17;0.30;;;0.30;;
39994;SDS011;25686;51.908;10.418;2023-01-15T00:24:18;0.38;;;0.30;;
39994;SDS011;25686;51.908;10.418;2023-01-15T00:26:38;0.10;;;0.10;;
39994;SDS011;25686;51.908;10.418;2023-01-15T00:28:58;0.45;;;0.30;;
39994;SDS011;25686;51.908;10.418;2023-01-15T00:30:59;0.30;;;0.30;;
39994;SDS011;25686;51.908;10.418;2023-01-15T00:33:00;0.95;;;0.30;;
39994;SDS011;25686;51.908;10.418;2023-01-15T00:35:02;0.63;;;0.30;;
39994;SDS011;25686;51.908;10.418;2023-01-15T00:37:03;0.40;;;0.40;;
39994;SDS011;25686;51.908;10.418;2023-01-15T00:39:04;0.57;;;0.40;;
39994;SDS011;25686;51.908;10.418;2023-01-15T00:41:05;0.88;;;0.50;;
39994;SDS011;25686;51.908;10.418;2023-01-15T00:43:06;0.50;;;0.50;;
39994;SDS011;25686;51.908;10.418;2023-01-15T00:45:07;0.73;;;0.50;;
39994;SDS011;25686;51.908;10.418;2023-01-15T00:47:09;1.25;;;0.50;;
39994;SDS011;25686;51.908;10.418;2023-01-15T00:49:13;1.65;;;1.00;;
39994;SDS011;25686;51.908;10.418;2023-01-15T00:51:14;1.63;;;1.00;;
39994;SDS011;25686;51.908;10.418;2023-01-15T00:53:16;1.45;;;1.00;;
39994;SDS011;25686;51.908;10.418;2023-01-15T00:55:17;2.50;;;1.10;;
39994;SDS011;25686;51.908;10.418;2023-01-15T00:57:18;1.67;;;1.00;;
39994;SDS011;25686;51.908;10.418;2023-01-15T00:59:19;1.10;;;1.00;;
39994;SDS011;25686;51.908;10.418;2023-01-15T01:01:20;3.47;;;1.30;;
39994;SDS011;25686;51.908;10.418;2023-01-15T01:03:22;3.03;;;1.20;;
39994;SDS011;25686;51.908;10.418;2023-01-15T01:05:23;3.33;;;0.95;;
39994;SDS011;25686;51.908;10.418;2023-01-15T01:07:24;1.20;;;1.00;;
39994;SDS011;25686;51.908;10.418;2023-01-15T01:09:25;1.00;;;0.95;;
39994;SDS011;25686;51.908;10.418;2023-01-15T01:11:26;2.03;;;1.05;;
39994;SDS011;25686;51.908;10.418;2023-01-15T01:13:32;2.00;;;1.30;;
39994;SDS011;25686;51.908;10.418;2023-01-15T01:15:34;1.10;;;1.10;;
39994;SDS011;25686;51.908;10.418;2023-01-15T01:17:36;1.80;;;1.10;;
39994;SDS011;25686;51.908;10.418;2023-01-15T01:19:37;1.98;;;1.00;;
39994;SDS011;25686;51.908;10.418;2023-01-15T01:21:38;2.03;;;0.90;;
39994;SDS011;25686;51.908;10.418;2023-01-15T01:23:39;1.80;;;1.20;;
39994;SDS011;25686;51.908;10.418;2023-01-15T01:25:40;1.42;;;1.10;;
39994;SDS011;25686;51.908;10.418;2023-01-15T01:27:42;1.10;;;1.00;;
39994;SDS011;25686;51.908;10.418;2023-01-15T01:29:44;1.35;;;1.00;;
39994;SDS011;25686;51.908;10.418;2023-01-15T01:31:45;1.75;;;0.88;;
39994;SDS011;25686;51.908;10.418;2023-01-15T01:33:49;0.90;;;0.90;;
39994;SDS011;25686;51.908;10.418;2023-01-15T01:35:50;1.30;;;0.93;;
39994;SDS011;25686;51.908;10.418;2023-01-15T01:37:51;2.17;;;0.90;;
39994;SDS011;25686;51.908;10.418;2023-01-15T01:39:52;1.02;;;0.95;;
39994;SDS011;25686;51.908;10.418;2023-01-15T01:41:54;1.00;;;0.90;;
39994;SDS011;25686;51.908;10.418;2023-01-15T01:46:01;1.85;;;0.95;;
39994;SDS011;25686;51.908;10.418;2023-01-15T01:48:03;0.95;;;0.90;;
39994;SDS011;25686;51.908;10.418;2023-01-15T01:50:07;1.20;;;0.75;;
39994;SDS011;25686;51.908;10.418;2023-01-15T01:52:12;0.80;;;0.80;;
39994;SDS011;25686;51.908;10.418;2023-01-15T01:54:15;1.27;;;0.93;;
39994;SDS011;25686;51.908;10.418;2023-01-15T01:56:17;1.00;;;1.00;;
39994;SDS011;25686;51.908;10.418;2023-01-15T01:58:18;1.10;;;1.00;;
39994;SDS011;25686;51.908;10.418;2023-01-15T02:00:21;1.92;;;1.00;;
39994;SDS011;25686;51.908;10.418;2023-01-15T02:02:23;4.93;;;1.10;;
39994;SDS011;25686;51.908;10.418;2023-01-15T02:04:24;1.45;;;0.80;;
39994;SDS011;25686;51.908;10.418;2023-01-15T02:06:26;1.42;;;0.90;;
39994;SDS011;25686;51.908;10.418;2023-01-15T02:08:27;2.35;;;1.00;;
39994;SDS011;25686;51.908;10.418;2023-01-15T02:10:31;1.30;;;0.70;;
39994;SDS011;25686;51.908;10.418;2023-01-15T02:12:34;2.50;;;0.70;;
39994;SDS011;25686;51.908;10.418;2023-01-15T02:14:41;2.38;;;0.88;;
39994;SDS011;25686;51.908;10.418;2023-01-15T02:21:38;2.92;;;0.98;;
39994;SDS011;25686;51.908;10.418;2023-01-15T02:27:57;3.08;;;0.82;;
39994;SDS011;25686;51.908;10.418;2023-01-15T02:30:46;1.15;;;0.70;;
39994;SDS011;25686;51.908;10.418;2023-01-15T02:32:26;0.70;;;0.60;;
39994;SDS011;25686;51.908;10.418;2023-01-15T02:34:30;2.40;;;0.60;;
39994;SDS011;25686;51.908;10.418;2023-01-15T02:36:34;2.00;;;0.70;;
39994;SDS011;25686;51.908;10.418;2023-01-15T02:38:40;0.47;;;0.30;;
39994;SDS011;25686;51.908;10.418;2023-01-15T02:40:43;1.75;;;0.50;;
39994;SDS011;25686;51.908;10.418;2023-01-15T02:42:46;1.83;;;0.60;;
39994;SDS011;25686;51.908;10.418;2023-01-15T02:44:48;0.65;;;0.50;;
39994;SDS011;25686;51.908;10.418;2023-01-15T02:46:51;0.23;;;0.20;;
39994;SDS011;25686;51.908;10.418;2023-01-15T02:48:53;0.20;;;0.20;;
39994;SDS011;25686;51.908;10.418;2023-01-15T02:50:59;0.47;;;0.20;;
39994;SDS011;25686;51.908;10.418;2023-01-15T02:53:02;0.50;;;0.17;;
39994;SDS011;25686;51.908;10.418;2023-01-15T02:55:06;1.87;;;0.30;;
39994;SDS011;25686;51.908;10.418;2023-01-15T02:57:08;0.10;;;0.10;;
39994;SDS011;25686;51.908;10.418;2023-01-15T02:59:11;0.10;;;0.10;;
39994;SDS011;25686;51.908;10.418;2023-01-15T03:01:19;0.93;;;0.20;;
39994;SDS011;25686;51.908;10.418;2023-01-15T03:05:39;0.30;;;0.10;;
39994;SDS011;25686;51.908;10.418;2023-01-15T03:07:45;3.90;;;0.10;;
39994;SDS011;25686;51.908;10.418;2023-01-15T03:09:47;0.70;;;0.30;;
39994;SDS011;25686;51.908;10.418;2023-01-15T03:11:52;0.53;;;0.20;;
39994;SDS011;25686;51.908;10.418;2023-01-15T03:14:02;0.93;;;0.30;;
39994;SDS011;25686;51.908;10.418;2023-01-15T03:16:07;0.20;;;0.20;;
39994;SDS011;25686;51.908;10.418;2023-01-15T03:18:30;0.20;;;0.20;;
39994;SDS011;25686;51.908;10.418;2023-01-15T03:20:33;0.60;;;0.20;;
39994;SDS011;25686;51.908;10.418;2023-01-15T03:22:38;0.53;;;0.20;;
39994;SDS011;25686;51.908;10.418;2023-01-15T03:26:43;0.43;;;0.20;;
39994;SDS011;25686;51.908;10.418;2023-01-15T03:28:44;0.20;;;0.20;;
39994;SDS011;25686;51.908;10.418;2023-01-15T03:30:46;0.63;;;0.20;;
39994;SDS011;25686;51.908;10.418;2023-01-15T03:32:47;0.63;;;0.20;;
39994;SDS011;25686;51.908;10.418;2023-01-15T03:34:49;0.40;;;0.30;;
39994;SDS011;25686;51.908;10.418;2023-01-15T03:36:51;1.90;;;0.30;;
39994;SDS011;25686;51.908;10.418;2023-01-15T03:38:52;0.23;;;0.20;;
39994;SDS011;25686;51.908;10.418;2023-01-15T03:43:07;0.97;;;0.20;;
39994;SDS011;25686;51.908;10.418;2023-01-15T03:45:30;0.83;;;0.30;;
39994;SDS011;25686;51.908;10.418;2023-01-15T03:52:01;2.17;;;0.30;;
39994;SDS011;25686;51.908;10.418;2023-01-15T03:54:04;2.00;;;0.30;;
39994;SDS011;25686;51.908;10.418;2023-01-15T03:58:28;0.27;;;0.20;;
39994;SDS011;25686;51.908;10.418;2023-01-15T04:00:31;0.33;;;0.30;;
39994;SDS011;25686;51.908;10.418;2023-01-15T04:02:34;1.47;;;0.40;;
39994;SDS011;25686;51.908;10.418;2023-01-15T04:04:37;2.00;;;0.40;;
39994;SDS011;25686;51.908;10.418;2023-01-15T04:06:38;1.07;;;0.40;;
39994;SDS011;25686;51.908;10.418;2023-01-15T04:08:40;1.30;;;0.40;;
39994;SDS011;25686;51.908;10.418;2023-01-15T04:10:51;1.73;;;0.30;;
39994;SDS011;25686;51.908;10.418;2023-01-15T04:12:52;0.57;;;0.30;;
39994;SDS011;25686;51.908;10.418;2023-01-15T04:14:53;0.30;;;0.30;;
39994;SDS011;25686;51.908;10.418;2023-01-15T04:16:54;0.70;;;0.40;;
39994;SDS011;25686;51.908;10.418;2023-01-15T04:18:55;2.40;;;0.30;;
39994;SDS011;25686;51.908;10.418;2023-01-15T04:20:56;1.60;;;0.30;;
39994;SDS011;25686;51.908;10.418;2023-01-15T04:22:57;0.90;;;0.40;;
39994;SDS011;25686;51.908;10.418;2023-01-15T04:24:58;1.77;;;0.37;;
39994;SDS011;25686;51.908;10.418;2023-01-15T04:26:59;0.87;;;0.30;;
39994;SDS011;25686;51.908;10.418;2023-01-15T04:29:00;0.30;;;0.30;;
39994;SDS011;25686;51.908;10.418;2023-01-15T04:31:01;0.77;;;0.40;;
39994;SDS011;25686;51.908;10.418;2023-01-15T04:33:02;0.67;;;0.27;;
39994;SDS011;25686;51.908;10.418;2023-01-15T04:35:03;0.40;;;0.30;;
39994;SDS011;25686;51.908;10.418;2023-01-15T04:37:04;1.50;;;0.30;;
39994;SDS011;25686;51.908;10.418;2023-01-15T04:39:05;0.30;;;0.30;;
39994;SDS011;25686;51.908;10.418;2023-01-15T04:41:06;1.90;;;0.50;;
39994;SDS011;25686;51.908;10.418;2023-01-15T04:43:26;1.97;;;0.30;;
39994;SDS011;25686;51.908;10.418;2023-01-15T04:45:45;0.77;;;0.40;;
39994;SDS011;25686;51.908;10.418;2023-01-15T04:47:46;0.23;;;0.23;;
39994;SDS011;25686;51.908;10.418;2023-01-15T04:49:47;0.97;;;0.57;;
39994;SDS011;25686;51.908;10.418;2023-01-15T04:51:48;0.37;;;0.30;;
39994;SDS011;25686;51.908;10.418;2023-01-15T04:53:49;0.80;;;0.40;;
39994;SDS011;25686;51.908;10.418;2023-01-15T04:55:50;0.87;;;0.40;;
39994;SDS011;25686;51.908;10.418;2023-01-15T04:57:51;1.70;;;0.40;;
39994;SDS011;25686;51.908;10.418;2023-01-15T04:59:52;2.47;;;0.60;;
39994;SDS011;25686;51.908;10.418;2023-01-15T05:01:53;1.93;;;0.60;;
39994;SDS011;25686;51.908;10.418;2023-01-15T05:03:54;1.87;;;0.50;;
39994;SDS011;25686;51.908;10.418;2023-01-15T05:06:00;4.43;;;0.50;;
39994;SDS011;25686;51.908;10.418;2023-01-15T05:08:01;2.50;;;0.50;;
39994;SDS011;25686;51.908;10.418;2023-01-15T05:10:02;1.73;;;0.33;;
39994;SDS011;25686;51.908;10.418;2023-01-15T05:12:03;1.27;;;0.40;;
39994;SDS011;25686;51.908;10.418;2023-01-15T05:14:05;3.93;;;0.60;;
39994;SDS011;25686;51.908;10.418;2023-01-15T05:16:16;2.03;;;0.50;;
39994;SDS011;25686;51.908;10.418;2023-01-15T05:18:17;1.03;;;0.40;;
39994;SDS011;25686;51.908;10.418;2023-01-15T05:20:18;0.73;;;0.40;;
39994;SDS011;25686;51.908;10.418;2023-01-15T05:22:19;0.70;;;0.40;;
39994;SDS011;25686;51.908;10.418;2023-01-15T05:24:20;3.43;;;0.50;;
39994;SDS011;25686;51.908;10.418;2023-01-15T05:26:21;0.73;;;0.50;;
39994;SDS011;25686;51.908;10.418;2023-01-15T05:28:21;3.13;;;0.50;;
39994;SDS011;25686;51.908;10.418;2023-01-15T05:30:22;0.97;;;0.40;;
39994;SDS011;25686;51.908;10.418;2023-01-15T05:32:23;2.00;;;0.70;;
39994;SDS011;25686;51.908;10.418;2023-01-15T05:34:24;1.17;;;0.50;;
39994;SDS011;25686;51.908;10.418;2023-01-15T05:36:27;1.80;;;0.30;;
39994;SDS011;25686;51.908;10.418;2023-01-15T05:38:28;1.87;;;0.60;;
39994;SDS011;25686;51.908;10.418;2023-01-15T05:40:29;0.53;;;0.40;;
39994;SDS011;25686;51.908;10.418;2023-01-15T05:42:30;3.03;;;0.50;;
39994;SDS011;25686;51.908;10.418;2023-01-15T05:44:31;2.30;;;0.43;;
39994;SDS011;25686;51.908;10.418;2023-01-15T05:46:32;0.70;;;0.40;;
39994;SDS011;25686;51.908;10.418;2023-01-15T05:48:33;3.57;;;0.60;;
39994;SDS011;25686;51.908;10.418;2023-01-15T05:50:34;1.13;;;0.40;;
39994;SDS011;25686;51.908;10.418;2023-01-15T05:52:35;2.23;;;0.73;;
39994;SDS011;25686;51.908;10.418;2023-01-15T05:54:36;0.77;;;0.50;;
39994;SDS011;25686;51.908;10.418;2023-01-15T05:56:38;1.77;;;0.40;;
39994;SDS011;25686;51.908;10.418;2023-01-15T05:58:39;1.07;;;0.40;;
39994;SDS011;25686;51.908;10.418;2023-01-15T06:00:40;1.43;;;0.40;;
39994;SDS011;25686;51.908;10.418;2023-01-15T06:02:41;1.87;;;0.50;;
39994;SDS011;25686;51.908;10.418;2023-01-15T06:04:42;2.03;;;0.60;;
39994;SDS011;25686;51.908;10.418;2023-01-15T06:06:42;2.43;;;0.50;;
39994;SDS011;25686;51.908;10.418;2023-01-15T06:08:44;1.03;;;0.37;;
39994;SDS011;25686;51.908;10.418;2023-01-15T06:10:45;1.87;;;0.40;;
39994;SDS011;25686;51.908;10.418;2023-01-15T06:12:46;2.93;;;0.53;;
39994;SDS011;25686;51.908;10.418;2023-01-15T06:14:47;0.77;;;0.60;;
39994;SDS011;25686;51.908;10.418;2023-01-15T06:16:47;3.30;;;0.53;;
39994;SDS011;25686;51.908;10.418;2023-01-15T06:18:49;0.50;;;0.30;;
39994;SDS011;25686;51.908;10.418;2023-01-15T06:20:50;1.33;;;0.57;;
39994;SDS011;25686;51.908;10.418;2023-01-15T06:22:51;3.57;;;0.47;;
39994;SDS011;25686;51.908;10.418;2023-01-15T06:24:52;2.17;;;0.40;;
39994;SDS011;25686;51.908;10.418;2023-01-15T06:26:53;2.50;;;0.43;;
39994;SDS011;25686;51.908;10.418;2023-01-15T06:28:54;3.10;;;0.60;;
39994;SDS011;25686;51.908;10.418;2023-01-15T06:30:55;1.73;;;0.37;;
39994;SDS011;25686;51.908;10.418;2023-01-15T06:32:56;2.40;;;0.60;;
39994;SDS011;25686;51.908;10.418;2023-01-15T06:34:57;1.80;;;0.50;;
39994;SDS011;25686;51.908;10.418;2023-01-15T06:36:58;0.40;;;0.40;;
39994;SDS011;25686;51.908;10.418;2023-01-15T06:38:59;3.33;;;0.50;;
39994;SDS011;25686;51.908;10.418;2023-01-15T06:41:00;3.30;;;0.40;;
39994;SDS011;25686;51.908;10.418;2023-01-15T06:43:02;0.77;;;0.20;;
39994;SDS011;25686;51.908;10.418;2023-01-15T06:45:21;0.43;;;0.30;;
39994;SDS011;25686;51.908;10.418;2023-01-15T06:47:40;0.23;;;0.23;;
39994;SDS011;25686;51.908;10.418;2023-01-15T06:49:41;0.80;;;0.30;;
39994;SDS011;25686;51.908;10.418;2023-01-15T06:51:42;2.00;;;0.40;;
39994;SDS011;25686;51.908;10.418;2023-01-15T06:53:43;0.17;;;0.17;;
39994;SDS011;25686;51.908;10.418;2023-01-15T06:55:44;2.27;;;0.40;;
39994;SDS011;25686;51.908;10.418;2023-01-15T06:57:45;0.20;;;0.20;;
39994;SDS011;25686;51.908;10.418;2023-01-15T06:59:47;0.30;;;0.30;;
39994;SDS011;25686;51.908;10.418;2023-01-15T07:01:48;2.10;;;0.40;;
39994;SDS011;25686;51.908;10.418;2023-01-15T07:03:49;1.60;;;0.20;;
39994;SDS011;25686;51.908;10.418;2023-01-15T07:05:50;1.90;;;0.30;;
39994;SDS011;25686;51.908;10.418;2023-01-15T07:07:51;0.63;;;0.20;;
39994;SDS011;25686;51.908;10.418;2023-01-15T07:09:52;3.50;;;0.40;;
39994;SDS011;25686;51.908;10.418;2023-01-15T07:11:53;0.67;;;0.30;;
39994;SDS011;25686;51.908;10.418;2023-01-15T07:13:54;0.47;;;0.30;;
39994;SDS011;25686;51.908;10.418;2023-01-15T07:16:04;4.50;;;0.40;;
39994;SDS011;25686;51.908;10.418;2023-01-15T07:18:26;0.40;;;0.23;;
39994;SDS011;25686;51.908;10.418;2023-01-15T07:20:27;0.70;;;0.30;;
39994;SDS011;25686;51.908;10.418;2023-01-15T07:22:28;0.77;;;0.20;;
39994;SDS011;25686;51.908;10.418;2023-01-15T07:24:29;0.53;;;0.23;;
39994;SDS011;25686;51.908;10.418;2023-01-15T07:26:30;0.20;;;0.20;;
39994;SDS011;25686;51.908;10.418;2023-01-15T07:28:31;0.90;;;0.30;;
39994;SDS011;25686;51.908;10.418;2023-01-15T07:30:32;0.73;;;0.33;;
39994;SDS011;25686;51.908;10.418;2023-01-15T07:32:33;0.30;;;0.30;;
39994;SDS011;25686;51.908;10.418;2023-01-15T07:34:34;0.33;;;0.30;;
39994;SDS011;25686;51.908;10.418;2023-01-15T07:36:35;2.23;;;0.50;;
39994;SDS011;25686;51.908;10.418;2023-01-15T07:38:36;1.20;;;0.50;;
39994;SDS011;25686;51.908;10.418;2023-01-15T07:40:37;3.77;;;0.70;;
39994;SDS011;25686;51.908;10.418;2023-01-15T07:42:38;0.90;;;0.67;;
39994;SDS011;25686;51.908;10.418;2023-01-15T07:44:58;1.63;;;0.50;;
39994;SDS011;25686;51.908;10.418;2023-01-15T07:47:18;0.40;;;0.40;;
39994;SDS011;25686;51.908;10.418;2023-01-15T07:49:40;2.37;;;0.90;;
39994;SDS011;25686;51.908;10.418;2023-01-15T07:51:44;1.93;;;0.60;;
39994;SDS011;25686;51.908;10.418;2023-01-15T07:53:45;3.30;;;1.03;;
39994;SDS011;25686;51.908;10.418;2023-01-15T07:55:46;2.50;;;0.60;;
39994;SDS011;25686;51.908;10.418;2023-01-15T07:57:47;2.93;;;0.80;;
39994;SDS011;25686;51.908;10.418;2023-01-15T07:59:48;1.43;;;0.70;;
39994;SDS011;25686;51.908;10.418;2023-01-15T08:01:50;2.13;;;0.83;;
39994;SDS011;25686;51.908;10.418;2023-01-15T08:03:51;0.97;;;0.40;;
39994;SDS011;25686;51.908;10.418;2023-01-15T08:05:52;1.77;;;0.60;;
39994;SDS011;25686;51.908;10.418;2023-01-15T08:07:53;2.03;;;0.60;;
39994;SDS011;25686;51.908;10.418;2023-01-15T08:09:54;2.27;;;0.50;;
39994;SDS011;25686;51.908;10.418;2023-01-15T08:11:57;4.93;;;0.60;;
39994;SDS011;25686;51.908;10.418;2023-01-15T08:14:17;1.37;;;0.50;;
39994;SDS011;25686;51.908;10.418;2023-01-15T08:16:37;1.80;;;0.70;;
39994;SDS011;25686;51.908;10.418;2023-01-15T08:18:38;4.40;;;0.70;;
39994;SDS011;25686;51.908;10.418;2023-01-15T08:20:39;2.33;;;0.57;;
39994;SDS011;25686;51.908;10.418;2023-01-15T08:22:40;1.47;;;0.37;;
39994;SDS011;25686;51.908;10.418;2023-01-15T08:24:41;1.07;;;0.50;;
39994;SDS011;25686;51.908;10.418;2023-01-15T08:26:41;1.77;;;0.50;;
39994;SDS011;25686;51.908;10.418;2023-01-15T08:28:42;1.23;;;0.40;;
39994;SDS011;25686;51.908;10.418;2023-01-15T08:30:43;2.40;;;0.60;;
39994;SDS011;25686;51.908;10.418;2023-01-15T08:32:44;1.67;;;0.50;;
39994;SDS011;25686;51.908;10.418;2023-01-15T08:34:45;2.80;;;0.50;;
39994;SDS011;25686;51.908;10.418;2023-01-15T08:36:46;5.37;;;0.77;;
39994;SDS011;25686;51.908;10.418;2023-01-15T08:38:48;3.80;;;0.50;;
39994;SDS011;25686;51.908;10.418;2023-01-15T08:40:52;2.80;;;0.60;;
39994;SDS011;25686;51.908;10.418;2023-01-15T08:43:01;2.67;;;0.70;;
39994;SDS011;25686;51.908;10.418;2023-01-15T08:45:02;3.07;;;0.67;;
39994;SDS011;25686;51.908;10.418;2023-01-15T08:47:03;1.80;;;0.60;;
39994;SDS011;25686;51.908;10.418;2023-01-15T08:49:04;3.90;;;0.70;;
39994;SDS011;25686;51.908;10.418;2023-01-15T08:51:05;1.87;;;0.50;;
39994;SDS011;25686;51.908;10.418;2023-01-15T08:53:07;5.40;;;0.70;;
39994;SDS011;25686;51.908;10.418;2023-01-15T08:55:08;5.80;;;0.90;;
39994;SDS011;25686;51.908;10.418;2023-01-15T08:57:09;3.20;;;0.50;;
39994;SDS011;25686;51.908;10.418;2023-01-15T08:59:12;2.03;;;0.60;;
39994;SDS011;25686;51.908;10.418;2023-01-15T09:01:13;4.63;;;0.63;;
39994;SDS011;25686;51.908;10.418;2023-01-15T09:03:14;3.00;;;0.90;;
39994;SDS011;25686;51.908;10.418;2023-01-15T09:05:15;4.47;;;1.63;;
39994;SDS011;25686;51.908;10.418;2023-01-15T09:07:17;3.83;;;0.80;;
39994;SDS011;25686;51.908;10.418;2023-01-15T09:09:18;2.07;;;0.70;;
39994;SDS011;25686;51.908;10.418;2023-01-15T09:11:19;2.37;;;0.70;;
39994;SDS011;25686;51.908;10.418;2023-01-15T09:13:20;4.47;;;0.70;;
39994;SDS011;25686;51.908;10.418;2023-01-15T09:15:21;4.20;;;0.77;;
39994;SDS011;25686;51.908;10.418;2023-01-15T09:17:22;4.27;;;1.03;;
39994;SDS011;25686;51.908;10.418;2023-01-15T09:19:23;4.00;;;0.80;;
39994;SDS011;25686;51.908;10.418;2023-01-15T09:21:24;5.13;;;1.30;;
39994;SDS011;25686;51.908;10.418;2023-01-15T09:23:25;3.40;;;1.50;;
39994;SDS011;25686;51.908;10.418;2023-01-15T09:25:26;3.43;;;1.03;;
39994;SDS011;25686;51.908;10.418;2023-01-15T09:27:27;3.80;;;1.03;;
39994;SDS011;25686;51.908;10.418;2023-01-15T09:29:28;6.80;;;0.97;;
39994;SDS011;25686;51.908;10.418;2023-01-15T09:31:29;3.70;;;0.50;;
39994;SDS011;25686;51.908;10.418;2023-01-15T09:33:31;2.60;;;0.63;;
39994;SDS011;25686;51.908;10.418;2023-01-15T09:35:31;1.63;;;0.60;;
39994;SDS011;25686;51.908;10.418;2023-01-15T09:37:32;3.57;;;0.63;;
39994;SDS011;25686;51.908;10.418;2023-01-15T09:39:33;2.90;;;0.83;;
39994;SDS011;25686;51.908;10.418;2023-01-15T09:41:39;5.20;;;0.90;;
39994;SDS011;25686;51.908;10.418;2023-01-15T09:44:22;2.10;;;0.80;;
39994;SDS011;25686;51.908;10.418;2023-01-15T09:46:34;2.13;;;0.73;;
39994;SDS011;25686;51.908;10.418;2023-01-15T09:48:42;4.70;;;0.90;;
39994;SDS011;25686;51.908;10.418;2023-01-15T09:55:04;3.50;;;1.23;;
39994;SDS011;25686;51.908;10.418;2023-01-15T09:57:11;3.63;;;0.80;;
39994;SDS011;25686;51.908;10.418;2023-01-15T09:59:18;3.60;;;0.70;;
39994;SDS011;25686;51.908;10.418;2023-01-15T10:01:24;3.07;;;0.60;;
39994;SDS011;25686;51.908;10.418;2023-01-15T10:03:28;4.07;;;1.70;;
39994;SDS011;25686;51.908;10.418;2023-01-15T10:05:34;3.37;;;0.70;;
39994;SDS011;25686;51.908;10.418;2023-01-15T10:09:58;2.93;;;0.60;;
39994;SDS011;25686;51.908;10.418;2023-01-15T10:12:06;3.70;;;0.93;;
39994;SDS011;25686;51.908;10.418;2023-01-15T10:14:31;3.53;;;0.80;;
39994;SDS011;25686;51.908;10.418;2023-01-15T10:16:37;3.37;;;0.77;;
39994;SDS011;25686;51.908;10.418;2023-01-15T10:18:38;4.77;;;0.70;;
39994;SDS011;25686;51.908;10.418;2023-01-15T10:24:56;5.67;;;1.00;;
39994;SDS011;25686;51.908;10.418;2023-01-15T10:26:58;1.77;;;0.60;;
39994;SDS011;25686;51.908;10.418;2023-01-15T10:29:00;5.53;;;0.60;;
39994;SDS011;25686;51.908;10.418;2023-01-15T10:31:07;2.60;;;0.50;;
39994;SDS011;25686;51.908;10.418;2023-01-15T10:35:36;2.70;;;0.60;;
39994;SDS011;25686;51.908;10.418;2023-01-15T10:37:42;5.20;;;0.90;;
39994;SDS011;25686;51.908;10.418;2023-01-15T10:39:47;2.70;;;0.60;;
39994;SDS011;25686;51.908;10.418;2023-01-15T10:42:00;3.07;;;0.53;;
39994;SDS011;25686;51.908;10.418;2023-01-15T10:44:10;2.97;;;0.70;;
39994;SDS011;25686;51.908;10.418;2023-01-15T10:46:17;3.30;;;0.83;;
39994;SDS011;25686;51.908;10.418;2023-01-15T10:48:20;4.47;;;0.67;;
39994;SDS011;25686;51.908;10.418;2023-01-15T10:50:25;2.30;;;0.43;;
39994;SDS011;25686;51.908;10.418;2023-01-15T10:52:33;2.93;;;0.80;;
39994;SDS011;25686;51.908;10.418;2023-01-15T10:54:37;3.63;;;0.70;;
39994;SDS011;25686;51.908;10.418;2023-01-15T10:56:50;3.63;;;0.70;;
39994;SDS011;25686;51.908;10.418;2023-01-15T10:59:56;2.87;;;0.60;;
39994;SDS011;25686;51.908;10.418;2023-01-15T11:01:25;4.07;;;0.80;;
39994;SDS011;25686;51.908;10.418;2023-01-15T11:03:37;1.20;;;0.50;;
39994;SDS011;25686;51.908;10.418;2023-01-15T11:05:38;6.20;;;0.70;;
39994;SDS011;25686;51.908;10.418;2023-01-15T11:07:40;1.95;;;0.65;;
39994;SDS011;25686;51.908;10.418;2023-01-15T11:09:42;3.47;;;0.80;;
39994;SDS011;25686;51.908;10.418;2023-01-15T11:11:44;0.90;;;0.47;;
39994;SDS011;25686;51.908;10.418;2023-01-15T11:13:57;2.67;;;0.67;;
39994;SDS011;25686;51.908;10.418;2023-01-15T11:16:21;3.97;;;0.60;;
39994;SDS011;25686;51.908;10.418;2023-01-15T11:18:39;1.70;;;0.70;;
39994;SDS011;25686;51.908;10.418;2023-01-15T11:21:00;5.40;;;0.80;;
39994;SDS011;25686;51.908;10.418;2023-01-15T11:23:06;2.13;;;0.63;;
39994;SDS011;25686;51.908;10.418;2023-01-15T11:25:07;2.13;;;0.60;;
39994;SDS011;25686;51.908;10.418;2023-01-15T11:27:12;3.40;;;0.87;;
39994;SDS011;25686;51.908;10.418;2023-01-15T11:29:14;2.00;;;0.60;;
39994;SDS011;25686;51.908;10.418;2023-01-15T11:31:16;3.03;;;0.67;;
39994;SDS011;25686;51.908;10.418;2023-01-15T11:33:21;4.90;;;0.80;;
39994;SDS011;25686;51.908;10.418;2023-01-15T11:35:23;3.47;;;0.60;;
39994;SDS011;25686;51.908;10.418;2023-01-15T11:37:24;1.17;;;0.70;;
39994;SDS011;25686;51.908;10.418;2023-01-15T11:39:27;4.35;;;0.68;;
39994;SDS011;25686;51.908;10.418;2023-01-15T11:41:31;2.17;;;0.50;;
39994;SDS011;25686;51.908;10.418;2023-01-15T11:43:55;1.05;;;0.43;;
39994;SDS011;25686;51.908;10.418;2023-01-15T11:46:28;1.63;;;0.55;;
39994;SDS011;25686;51.908;10.418;2023-01-15T11:48:49;6.53;;;0.93;;
39994;SDS011;25686;51.908;10.418;2023-01-15T11:51:12;1.75;;;0.73;;
39994;SDS011;25686;51.908;10.418;2023-01-15T11:53:16;7.10;;;0.77;;
39994;SDS011;25686;51.908;10.418;2023-01-15T11:55:19;1.67;;;0.57;;
39994;SDS011;25686;51.908;10.418;2023-01-15T11:57:26;1.70;;;0.65;;
39994;SDS011;25686;51.908;10.418;2023-01-15T11:59:28;3.35;;;0.55;;
39994;SDS011;25686;51.908;10.418;2023-01-15T12:01:32;2.87;;;0.70;;
39994;SDS011;25686;51.908;10.418;2023-01-15T12:03:35;2.03;;;0.77;;
39994;SDS011;25686;51.908;10.418;2023-01-15T12:05:36;4.33;;;1.17;;
39994;SDS011;25686;51.908;10.418;2023-01-15T12:07:37;2.37;;;0.70;;
39994;SDS011;25686;51.908;10.418;2023-01-15T12:09:45;4.30;;;0.87;;
39994;SDS011;25686;51.908;10.418;2023-01-15T12:25:04;1.27;;;0.60;;
39994;SDS011;25686;51.908;10.418;2023-01-15T12:27:18;2.85;;;0.52;;
39994;SDS011;25686;51.908;10.418;2023-01-15T12:29:22;2.83;;;1.00;;
39994;SDS011;25686;51.908;10.418;2023-01-15T12:31:26;1.35;;;0.47;;
39994;SDS011;25686;51.908;10.418;2023-01-15T12:33:48;3.00;;;0.70;;
39994;SDS011;25686;51.908;10.418;2023-01-15T12:36:01;1.47;;;0.40;;
39994;SDS011;25686;51.908;10.418;2023-01-15T12:42:16;0.93;;;0.33;;
39994;SDS011;25686;51.908;10.418;2023-01-15T12:47:00;2.00;;;0.60;;
39994;SDS011;25686;51.908;10.418;2023-01-15T12:49:08;2.13;;;0.53;;
39994;SDS011;25686;51.908;10.418;2023-01-15T12:51:12;1.37;;;0.37;;
39994;SDS011;25686;51.908;10.418;2023-01-15T12:55:33;1.97;;;0.40;;
39994;SDS011;25686;51.908;10.418;2023-01-15T12:57:38;4.53;;;0.67;;
39994;SDS011;25686;51.908;10.418;2023-01-15T12:59:45;2.07;;;0.50;;
39994;SDS011;25686;51.908;10.418;2023-01-15T13:04:22;4.73;;;0.60;;
39994;SDS011;25686;51.908;10.418;2023-01-15T13:06:25;3.93;;;0.57;;
39994;SDS011;25686;51.908;10.418;2023-01-15T13:08:43;1.53;;;0.40;;
39994;SDS011;25686;51.908;10.418;2023-01-15T13:10:49;1.57;;;0.50;;
39994;SDS011;25686;51.908;10.418;2023-01-15T13:12:57;1.17;;;0.40;;
39994;SDS011;25686;51.908;10.418;2023-01-15T13:15:00;3.40;;;0.80;;
39994;SDS011;25686;51.908;10.418;2023-01-15T13:21:11;3.10;;;0.60;;